sensor_id;sensor_type;location;lat;lon;timestamp;pressure;altitude;pressure_sealevel;temperature;humidity
69528;BME280;57136;51.986;4.468;2022-11-14T00:00:07;101691.53;;;4.49;100.00
69528;BME280;57136;51.986;4.468;2022-11-14T00:02:33;101696.69;;;4.49;100.00
69528;BME280;57136;51.986;4.468;2022-11-14T00:04:58;101695.97;;;4.52;100.00
69528;BME280;57136;51.986;4.468;2022-11-14T00:07:24;101698.34;;;4.47;100.00
69528;BME280;57136;51.986;4.468;2022-11-14T00:09:49;101696.69;;;4.49;100.00
69528;BME280;57136;51.986;4.468;2022-11-14T00:12:14;101691.09;;;4.58;100.00
69528;BME280;57136;51.986;4.468;2022-11-14T00:14:40;101695.47;;;4.60;100.00
69528;BME280;57136;51.986;4.468;2022-11-14T00:17:05;101694.72;;;4.63;100.00
69528;BME280;57136;51.986;4.468;2022-11-14T00:19:31;101688.13;;;4.70;100.00
69528;BME280;57136;51.986;4.468;2022-11-14T00:21:56;101708.13;;;4.74;100.00
69528;BME280;57136;51.986;4.468;2022-11-14T00:24:21;101690.28;;;5.01;100.00
69528;BME280;57136;51.986;4.468;2022-11-14T00:26:47;101699.16;;;5.08;100.00
69528;BME280;57136;51.986;4.468;2022-11-14T00:29:13;101689.16;;;5.16;100.00
69528;BME280;57136;51.986;4.468;2022-11-14T00:31:39;101681.59;;;5.20;100.00
69528;BME280;57136;51.986;4.468;2022-11-14T00:34:05;101679.28;;;5.28;100.00
69528;BME280;57136;51.986;4.468;2022-11-14T00:36:31;101674.94;;;5.27;100.00
69528;BME280;57136;51.986;4.468;2022-11-14T00:38:56;101669.84;;;5.29;100.00
69528;BME280;57136;51.986;4.468;2022-11-14T00:41:22;101679.38;;;5.30;100.00
69528;BME280;57136;51.986;4.468;2022-11-14T00:43:47;101681.06;;;5.29;100.00
69528;BME280;57136;51.986;4.468;2022-11-14T00:46:12;101679.41;;;5.31;100.00
69528;BME280;57136;51.986;4.468;2022-11-14T00:48:38;101672.34;;;5.27;100.00
69528;BME280;57136;51.986;4.468;2022-11-14T00:51:03;101674.28;;;5.33;100.00
69528;BME280;57136;51.986;4.468;2022-11-14T00:53:29;101662.53;;;5.39;100.00
69528;BME280;57136;51.986;4.468;2022-11-14T00:55:54;101654.56;;;5.35;100.00
69528;BME280;57136;51.986;4.468;2022-11-14T00:58:20;101652.31;;;5.43;100.00
69528;BME280;57136;51.986;4.468;2022-11-14T01:00:45;101654.53;;;5.33;100.00
69528;BME280;57136;51.986;4.468;2022-11-14T01:03:11;101650.69;;;5.23;100.00
69528;BME280;57136;51.986;4.468;2022-11-14T01:05:54;101643.81;;;5.24;100.00
69528;BME280;57136;51.986;4.468;2022-11-14T01:08:20;101647.41;;;5.28;100.00
69528;BME280;57136;51.986;4.468;2022-11-14T01:10:47;101639.84;;;5.32;100.00
69528;BME280;57136;51.986;4.468;2022-11-14T01:13:14;101641.50;;;5.32;100.00
69528;BME280;57136;51.986;4.468;2022-11-14T01:15:42;101641.63;;;5.35;100.00
69528;BME280;57136;51.986;4.468;2022-11-14T01:18:16;101637.25;;;5.32;100.00
69528;BME280;57136;51.986;4.468;2022-11-14T01:20:43;101640.78;;;5.34;100.00
69528;BME280;57136;51.986;4.468;2022-11-14T01:23:09;101636.59;;;5.15;100.00
69528;BME280;57136;51.986;4.468;2022-11-14T01:25:36;101629.59;;;5.13;100.00
69528;BME280;57136;51.986;4.468;2022-11-14T01:28:07;101626.41;;;5.20;100.00
69528;BME280;57136;51.986;4.468;2022-11-14T01:30:33;101619.84;;;5.28;100.00
69528;BME280;57136;51.986;4.468;2022-11-14T01:32:58;101618.16;;;5.29;100.00
69528;BME280;57136;51.986;4.468;2022-11-14T01:35:24;101616.03;;;5.18;100.00
69528;BME280;57136;51.986;4.468;2022-11-14T01:37:49;101610.63;;;5.35;100.00
69528;BME280;57136;51.986;4.468;2022-11-14T01:40:15;101618.34;;;5.33;100.00
69528;BME280;57136;51.986;4.468;2022-11-14T01:42:40;101608.13;;;5.36;100.00
69528;BME280;57136;51.986;4.468;2022-11-14T01:48:25;101594.78;;;5.25;100.00
69528;BME280;57136;51.986;4.468;2022-11-14T01:51:20;101594.53;;;5.19;100.00
69528;BME280;57136;51.986;4.468;2022-11-14T01:53:50;101596.34;;;5.22;100.00
69528;BME280;57136;51.986;4.468;2022-11-14T01:56:22;101598.94;;;5.22;100.00
69528;BME280;57136;51.986;4.468;2022-11-14T01:58:53;101583.38;;;5.20;100.00
69528;BME280;57136;51.986;4.468;2022-11-14T02:01:21;101584.25;;;5.21;100.00
69528;BME280;57136;51.986;4.468;2022-11-14T02:03:50;101591.00;;;5.17;100.00
69528;BME280;57136;51.986;4.468;2022-11-14T02:06:19;101579.22;;;5.24;100.00
69528;BME280;57136;51.986;4.468;2022-11-14T02:08:45;101576.50;;;5.21;100.00
69528;BME280;57136;51.986;4.468;2022-11-14T02:11:12;101574.97;;;5.26;100.00
69528;BME280;57136;51.986;4.468;2022-11-14T02:13:37;101564.63;;;5.26;100.00
69528;BME280;57136;51.986;4.468;2022-11-14T02:16:04;101566.13;;;5.19;100.00
69528;BME280;57136;51.986;4.468;2022-11-14T02:18:29;101561.88;;;5.21;100.00
69528;BME280;57136;51.986;4.468;2022-11-14T02:20:55;101562.94;;;5.27;100.00
69528;BME280;57136;51.986;4.468;2022-11-14T02:23:27;101558.53;;;5.24;100.00
69528;BME280;57136;51.986;4.468;2022-11-14T02:25:53;101548.91;;;5.20;100.00
69528;BME280;57136;51.986;4.468;2022-11-14T02:28:19;101546.31;;;5.20;100.00
69528;BME280;57136;51.986;4.468;2022-11-14T02:30:45;101542.50;;;5.10;100.00
69528;BME280;57136;51.986;4.468;2022-11-14T02:33:11;101542.47;;;5.08;100.00
69528;BME280;57136;51.986;4.468;2022-11-14T02:35:36;101540.00;;;5.12;100.00
69528;BME280;57136;51.986;4.468;2022-11-14T02:38:01;101537.16;;;5.05;100.00
69528;BME280;57136;51.986;4.468;2022-11-14T02:40:27;101532.81;;;5.04;100.00
69528;BME280;57136;51.986;4.468;2022-11-14T02:42:52;101535.97;;;4.97;100.00
69528;BME280;57136;51.986;4.468;2022-11-14T02:45:17;101530.94;;;5.00;100.00
69528;BME280;57136;51.986;4.468;2022-11-14T02:47:45;101525.91;;;5.03;100.00
69528;BME280;57136;51.986;4.468;2022-11-14T02:50:10;101520.69;;;5.02;100.00
69528;BME280;57136;51.986;4.468;2022-11-14T02:52:35;101520.44;;;4.95;100.00
69528;BME280;57136;51.986;4.468;2022-11-14T02:55:01;101519.22;;;4.86;100.00
69528;BME280;57136;51.986;4.468;2022-11-14T02:57:27;101521.78;;;4.86;100.00
69528;BME280;57136;51.986;4.468;2022-11-14T02:59:52;101512.44;;;4.89;100.00
69528;BME280;57136;51.986;4.468;2022-11-14T03:02:17;101516.63;;;4.86;100.00
69528;BME280;57136;51.986;4.468;2022-11-14T03:04:42;101512.19;;;4.83;100.00
69528;BME280;57136;51.986;4.468;2022-11-14T03:07:08;101519.09;;;4.83;100.00
69528;BME280;57136;51.986;4.468;2022-11-14T03:09:34;101509.63;;;4.83;100.00
69528;BME280;57136;51.986;4.468;2022-11-14T03:11:59;101512.59;;;4.71;100.00
69528;BME280;57136;51.986;4.468;2022-11-14T03:14:24;101511.75;;;4.71;100.00
69528;BME280;57136;51.986;4.468;2022-11-14T03:16:50;101512.78;;;4.76;100.00
69528;BME280;57136;51.986;4.468;2022-11-14T03:19:15;101516.44;;;4.81;100.00
69528;BME280;57136;51.986;4.468;2022-11-14T03:21:41;101515.47;;;4.79;100.00
69528;BME280;57136;51.986;4.468;2022-11-14T03:24:07;101509.59;;;4.60;100.00
69528;BME280;57136;51.986;4.468;2022-11-14T03:26:32;101506.16;;;4.60;100.00
69528;BME280;57136;51.986;4.468;2022-11-14T03:28:58;101510.25;;;4.55;100.00
69528;BME280;57136;51.986;4.468;2022-11-14T03:31:23;101509.44;;;4.56;100.00
69528;BME280;57136;51.986;4.468;2022-11-14T03:33:48;101517.19;;;4.56;100.00
69528;BME280;57136;51.986;4.468;2022-11-14T03:36:13;101515.53;;;4.58;100.00
69528;BME280;57136;51.986;4.468;2022-11-14T03:38:42;101515.09;;;4.47;100.00
69528;BME280;57136;51.986;4.468;2022-11-14T03:41:07;101513.13;;;4.41;100.00
69528;BME280;57136;51.986;4.468;2022-11-14T03:43:33;101505.47;;;4.43;100.00
69528;BME280;57136;51.986;4.468;2022-11-14T03:46:02;101502.69;;;4.38;100.00
69528;BME280;57136;51.986;4.468;2022-11-14T03:48:28;101504.84;;;4.48;100.00
69528;BME280;57136;51.986;4.468;2022-11-14T03:50:54;101500.09;;;4.38;100.00
69528;BME280;57136;51.986;4.468;2022-11-14T03:53:20;101489.63;;;4.33;100.00
69528;BME280;57136;51.986;4.468;2022-11-14T03:55:45;101489.47;;;4.30;100.00
69528;BME280;57136;51.986;4.468;2022-11-14T03:58:10;101487.69;;;4.28;100.00
69528;BME280;57136;51.986;4.468;2022-11-14T04:00:36;101484.72;;;4.18;100.00
69528;BME280;57136;51.986;4.468;2022-11-14T04:03:01;101485.84;;;4.25;100.00
69528;BME280;57136;51.986;4.468;2022-11-14T04:05:27;101475.81;;;4.33;100.00
69528;BME280;57136;51.986;4.468;2022-11-14T04:07:52;101474.94;;;4.32;100.00
69528;BME280;57136;51.986;4.468;2022-11-14T04:10:18;101473.56;;;4.19;100.00
69528;BME280;57136;51.986;4.468;2022-11-14T04:12:50;101473.94;;;4.29;100.00
69528;BME280;57136;51.986;4.468;2022-11-14T04:15:16;101476.19;;;4.21;100.00
69528;BME280;57136;51.986;4.468;2022-11-14T04:17:43;101472.66;;;4.19;100.00
69528;BME280;57136;51.986;4.468;2022-11-14T04:20:09;101475.06;;;4.35;100.00
69528;BME280;57136;51.986;4.468;2022-11-14T04:22:34;101464.50;;;4.29;100.00
69528;BME280;57136;51.986;4.468;2022-11-14T04:25:00;101473.00;;;4.27;100.00
69528;BME280;57136;51.986;4.468;2022-11-14T04:27:25;101464.75;;;4.14;100.00
69528;BME280;57136;51.986;4.468;2022-11-14T04:29:50;101462.59;;;4.25;100.00
69528;BME280;57136;51.986;4.468;2022-11-14T04:32:16;101457.78;;;4.12;100.00
69528;BME280;57136;51.986;4.468;2022-11-14T04:34:41;101452.00;;;4.17;100.00
69528;BME280;57136;51.986;4.468;2022-11-14T04:37:07;101456.47;;;4.22;100.00
69528;BME280;57136;51.986;4.468;2022-11-14T04:39:32;101462.44;;;4.20;100.00
69528;BME280;57136;51.986;4.468;2022-11-14T04:41:57;101460.16;;;4.07;100.00
69528;BME280;57136;51.986;4.468;2022-11-14T04:44:23;101452.50;;;4.09;100.00
69528;BME280;57136;51.986;4.468;2022-11-14T04:46:48;101447.34;;;4.09;100.00
69528;BME280;57136;51.986;4.468;2022-11-14T04:49:13;101455.63;;;4.01;100.00
69528;BME280;57136;51.986;4.468;2022-11-14T04:51:39;101452.25;;;4.02;100.00
69528;BME280;57136;51.986;4.468;2022-11-14T04:54:04;101449.16;;;3.90;100.00
69528;BME280;57136;51.986;4.468;2022-11-14T04:56:29;101447.50;;;3.92;100.00
69528;BME280;57136;51.986;4.468;2022-11-14T04:58:56;101439.78;;;3.92;100.00
69528;BME280;57136;51.986;4.468;2022-11-14T05:01:21;101431.53;;;3.80;100.00
69528;BME280;57136;51.986;4.468;2022-11-14T05:03:46;101426.22;;;3.75;100.00
69528;BME280;57136;51.986;4.468;2022-11-14T05:06:12;101422.81;;;3.76;100.00
69528;BME280;57136;51.986;4.468;2022-11-14T05:08:37;101417.44;;;3.71;100.00
69528;BME280;57136;51.986;4.468;2022-11-14T05:11:03;101408.84;;;3.71;100.00
69528;BME280;57136;51.986;4.468;2022-11-14T05:13:28;101414.13;;;3.74;100.00
69528;BME280;57136;51.986;4.468;2022-11-14T05:15:58;101411.47;;;3.72;100.00
69528;BME280;57136;51.986;4.468;2022-11-14T05:18:24;101406.94;;;3.67;100.00
69528;BME280;57136;51.986;4.468;2022-11-14T05:20:49;101408.31;;;3.58;100.00
69528;BME280;57136;51.986;4.468;2022-11-14T05:23:20;101407.44;;;3.58;100.00
69528;BME280;57136;51.986;4.468;2022-11-14T05:26:04;101401.91;;;3.49;100.00
69528;BME280;57136;51.986;4.468;2022-11-14T05:28:30;101413.19;;;3.52;100.00
69528;BME280;57136;51.986;4.468;2022-11-14T05:31:03;101416.59;;;3.51;100.00
69528;BME280;57136;51.986;4.468;2022-11-14T05:33:29;101410.84;;;3.57;100.00
69528;BME280;57136;51.986;4.468;2022-11-14T05:36:01;101409.81;;;3.53;100.00
69528;BME280;57136;51.986;4.468;2022-11-14T05:38:26;101419.31;;;3.54;100.00
69528;BME280;57136;51.986;4.468;2022-11-14T05:40:51;101415.22;;;3.59;100.00
69528;BME280;57136;51.986;4.468;2022-11-14T05:43:16;101415.66;;;3.49;100.00
69528;BME280;57136;51.986;4.468;2022-11-14T05:45:42;101406.56;;;3.57;100.00
69528;BME280;57136;51.986;4.468;2022-11-14T05:48:07;101406.28;;;3.51;100.00
69528;BME280;57136;51.986;4.468;2022-11-14T05:50:33;101410.44;;;3.48;100.00
69528;BME280;57136;51.986;4.468;2022-11-14T05:52:58;101404.22;;;3.42;100.00
69528;BME280;57136;51.986;4.468;2022-11-14T05:55:23;101401.72;;;3.44;100.00
69528;BME280;57136;51.986;4.468;2022-11-14T05:57:49;101395.66;;;3.43;100.00
69528;BME280;57136;51.986;4.468;2022-11-14T06:00:14;101389.69;;;3.44;100.00
69528;BME280;57136;51.986;4.468;2022-11-14T06:02:40;101406.72;;;3.41;100.00
69528;BME280;57136;51.986;4.468;2022-11-14T06:05:05;101408.53;;;3.43;100.00
69528;BME280;57136;51.986;4.468;2022-11-14T06:07:31;101405.66;;;3.36;100.00
69528;BME280;57136;51.986;4.468;2022-11-14T06:09:56;101401.31;;;3.35;100.00
69528;BME280;57136;51.986;4.468;2022-11-14T06:12:21;101407.22;;;3.32;100.00
69528;BME280;57136;51.986;4.468;2022-11-14T06:14:47;101404.28;;;3.24;100.00
69528;BME280;57136;51.986;4.468;2022-11-14T06:17:12;101411.06;;;3.22;100.00
69528;BME280;57136;51.986;4.468;2022-11-14T06:19:37;101413.41;;;3.16;100.00
69528;BME280;57136;51.986;4.468;2022-11-14T06:22:03;101417.38;;;3.09;100.00
69528;BME280;57136;51.986;4.468;2022-11-14T06:24:28;101409.44;;;3.05;100.00
69528;BME280;57136;51.986;4.468;2022-11-14T06:26:54;101413.59;;;3.01;100.00
69528;BME280;57136;51.986;4.468;2022-11-14T06:29:19;101414.31;;;2.98;100.00
69528;BME280;57136;51.986;4.468;2022-11-14T06:31:44;101415.94;;;2.96;100.00
69528;BME280;57136;51.986;4.468;2022-11-14T06:34:10;101410.88;;;2.98;100.00
69528;BME280;57136;51.986;4.468;2022-11-14T06:36:37;101412.56;;;2.97;100.00
69528;BME280;57136;51.986;4.468;2022-11-14T06:39:02;101400.59;;;2.98;100.00
69528;BME280;57136;51.986;4.468;2022-11-14T06:41:28;101404.69;;;2.94;100.00
69528;BME280;57136;51.986;4.468;2022-11-14T06:43:53;101403.00;;;2.95;100.00
69528;BME280;57136;51.986;4.468;2022-11-14T06:46:21;101404.63;;;2.93;100.00
69528;BME280;57136;51.986;4.468;2022-11-14T06:48:48;101400.81;;;2.84;100.00
69528;BME280;57136;51.986;4.468;2022-11-14T06:51:14;101402.72;;;2.89;100.00
69528;BME280;57136;51.986;4.468;2022-11-14T06:53:41;101403.97;;;2.97;100.00
69528;BME280;57136;51.986;4.468;2022-11-14T06:56:11;101396.06;;;2.92;100.00
69528;BME280;57136;51.986;4.468;2022-11-14T06:58:40;101398.47;;;2.89;100.00
69528;BME280;57136;51.986;4.468;2022-11-14T07:01:07;101403.69;;;2.91;100.00
69528;BME280;57136;51.986;4.468;2022-11-14T07:03:34;101414.50;;;2.83;100.00
69528;BME280;57136;51.986;4.468;2022-11-14T07:06:00;101403.34;;;2.83;100.00
69528;BME280;57136;51.986;4.468;2022-11-14T07:08:26;101406.78;;;2.83;100.00
69528;BME280;57136;51.986;4.468;2022-11-14T07:10:52;101403.63;;;2.89;100.00
69528;BME280;57136;51.986;4.468;2022-11-14T07:13:17;101406.34;;;2.92;100.00
69528;BME280;57136;51.986;4.468;2022-11-14T07:15:50;101410.06;;;2.99;100.00
69528;BME280;57136;51.986;4.468;2022-11-14T07:18:16;101401.53;;;3.00;100.00
69528;BME280;57136;51.986;4.468;2022-11-14T07:20:41;101402.41;;;3.00;100.00
69528;BME280;57136;51.986;4.468;2022-11-14T07:23:06;101399.69;;;2.97;100.00
69528;BME280;57136;51.986;4.468;2022-11-14T07:25:32;101392.09;;;3.00;100.00
69528;BME280;57136;51.986;4.468;2022-11-14T07:27:58;101388.72;;;3.02;100.00
69528;BME280;57136;51.986;4.468;2022-11-14T07:30:23;101386.59;;;3.12;100.00
69528;BME280;57136;51.986;4.468;2022-11-14T07:32:55;101389.84;;;3.08;100.00
69528;BME280;57136;51.986;4.468;2022-11-14T07:35:21;101388.72;;;3.02;100.00
69528;BME280;57136;51.986;4.468;2022-11-14T07:37:47;101390.56;;;3.04;100.00
69528;BME280;57136;51.986;4.468;2022-11-14T07:40:12;101383.16;;;3.12;100.00
69528;BME280;57136;51.986;4.468;2022-11-14T07:42:38;101383.22;;;3.13;100.00
69528;BME280;57136;51.986;4.468;2022-11-14T07:45:03;101384.94;;;3.13;100.00
69528;BME280;57136;51.986;4.468;2022-11-14T07:47:29;101381.59;;;3.15;100.00
69528;BME280;57136;51.986;4.468;2022-11-14T07:49:54;101381.19;;;3.26;100.00
69528;BME280;57136;51.986;4.468;2022-11-14T07:52:20;101376.34;;;3.34;100.00
69528;BME280;57136;51.986;4.468;2022-11-14T07:54:46;101369.97;;;3.45;100.00
69528;BME280;57136;51.986;4.468;2022-11-14T07:57:11;101362.97;;;3.42;100.00
69528;BME280;57136;51.986;4.468;2022-11-14T07:59:36;101367.84;;;3.56;100.00
69528;BME280;57136;51.986;4.468;2022-11-14T08:02:02;101367.84;;;3.56;100.00
69528;BME280;57136;51.986;4.468;2022-11-14T08:04:27;101369.66;;;3.58;100.00
69528;BME280;57136;51.986;4.468;2022-11-14T08:06:53;101376.19;;;3.71;100.00
69528;BME280;57136;51.986;4.468;2022-11-14T08:09:18;101364.22;;;3.72;100.00
69528;BME280;57136;51.986;4.468;2022-11-14T08:11:43;101370.09;;;3.69;100.00
69528;BME280;57136;51.986;4.468;2022-11-14T08:14:11;101363.63;;;3.79;100.00
69528;BME280;57136;51.986;4.468;2022-11-14T08:16:37;101365.38;;;3.80;100.00
69528;BME280;57136;51.986;4.468;2022-11-14T08:19:02;101356.38;;;3.92;100.00
69528;BME280;57136;51.986;4.468;2022-11-14T08:21:27;101355.00;;;4.00;100.00
69528;BME280;57136;51.986;4.468;2022-11-14T08:23:53;101358.31;;;3.97;100.00
69528;BME280;57136;51.986;4.468;2022-11-14T08:26:18;101361.66;;;3.95;100.00
69528;BME280;57136;51.986;4.468;2022-11-14T08:28:44;101356.63;;;3.98;100.00
69528;BME280;57136;51.986;4.468;2022-11-14T08:31:09;101360.75;;;4.15;100.00
69528;BME280;57136;51.986;4.468;2022-11-14T08:33:35;101353.25;;;4.22;100.00
69528;BME280;57136;51.986;4.468;2022-11-14T08:36:05;101356.66;;;4.20;100.00
69528;BME280;57136;51.986;4.468;2022-11-14T08:38:32;101353.44;;;4.26;100.00
69528;BME280;57136;51.986;4.468;2022-11-14T08:41:01;101349.16;;;4.27;100.00
69528;BME280;57136;51.986;4.468;2022-11-14T08:43:28;101351.91;;;4.54;100.00
69528;BME280;57136;51.986;4.468;2022-11-14T08:45:56;101346.38;;;4.68;100.00
69528;BME280;57136;51.986;4.468;2022-11-14T08:48:23;101345.16;;;4.82;100.00
69528;BME280;57136;51.986;4.468;2022-11-14T08:50:48;101348.47;;;5.27;100.00
69528;BME280;57136;51.986;4.468;2022-11-14T08:53:13;101340.88;;;5.59;100.00
69528;BME280;57136;51.986;4.468;2022-11-14T08:55:46;101344.72;;;5.70;100.00
69528;BME280;57136;51.986;4.468;2022-11-14T08:58:12;101334.13;;;5.62;100.00
69528;BME280;57136;51.986;4.468;2022-11-14T09:00:37;101332.22;;;5.84;100.00
69528;BME280;57136;51.986;4.468;2022-11-14T09:03:07;101328.28;;;6.23;100.00
69528;BME280;57136;51.986;4.468;2022-11-14T09:05:33;101326.19;;;6.70;100.00
69528;BME280;57136;51.986;4.468;2022-11-14T09:07:58;101324.44;;;7.01;100.00
69528;BME280;57136;51.986;4.468;2022-11-14T09:10:24;101324.47;;;7.35;99.82
69528;BME280;57136;51.986;4.468;2022-11-14T09:12:54;101321.72;;;7.29;95.36
69528;BME280;57136;51.986;4.468;2022-11-14T09:15:20;101324.59;;;7.06;95.32
69528;BME280;57136;51.986;4.468;2022-11-14T09:17:45;101320.06;;;7.32;96.35
69528;BME280;57136;51.986;4.468;2022-11-14T09:20:10;101323.84;;;7.12;93.91
69528;BME280;57136;51.986;4.468;2022-11-14T09:22:36;101324.50;;;7.37;94.52
69528;BME280;57136;51.986;4.468;2022-11-14T09:25:01;101319.50;;;7.44;92.15
69528;BME280;57136;51.986;4.468;2022-11-14T09:27:27;101314.78;;;7.63;93.06
69528;BME280;57136;51.986;4.468;2022-11-14T09:29:52;101311.63;;;8.15;91.52
69528;BME280;57136;51.986;4.468;2022-11-14T09:32:17;101310.72;;;8.52;88.59
69528;BME280;57136;51.986;4.468;2022-11-14T09:34:43;101309.50;;;8.38;89.05
69528;BME280;57136;51.986;4.468;2022-11-14T09:37:09;101300.53;;;8.63;88.64
69528;BME280;57136;51.986;4.468;2022-11-14T09:39:35;101310.34;;;8.35;87.43
69528;BME280;57136;51.986;4.468;2022-11-14T09:44:57;101302.16;;;8.58;86.61
69528;BME280;57136;51.986;4.468;2022-11-14T09:47:41;101293.69;;;8.67;86.18
69528;BME280;57136;51.986;4.468;2022-11-14T09:50:19;101295.88;;;8.91;84.11
69528;BME280;57136;51.986;4.468;2022-11-14T09:52:55;101298.34;;;9.33;84.43
69528;BME280;57136;51.986;4.468;2022-11-14T09:55:26;101298.44;;;9.94;82.89
69528;BME280;57136;51.986;4.468;2022-11-14T09:57:53;101289.63;;;10.51;78.52
69528;BME280;57136;51.986;4.468;2022-11-14T10:00:25;101279.00;;;11.14;74.77
69528;BME280;57136;51.986;4.468;2022-11-14T10:05:41;101278.69;;;11.83;68.38
69528;BME280;57136;51.986;4.468;2022-11-14T10:19:33;101269.19;;;10.88;76.42
69528;BME280;57136;51.986;4.468;2022-11-14T10:24:46;101256.91;;;10.03;79.07
69528;BME280;57136;51.986;4.468;2022-11-14T10:27:18;101258.66;;;9.46;82.96
69528;BME280;57136;51.986;4.468;2022-11-14T10:30:08;101255.63;;;9.73;83.61
69528;BME280;57136;51.986;4.468;2022-11-14T10:40:49;101257.06;;;9.01;86.71
69528;BME280;57136;51.986;4.468;2022-11-14T10:45:52;101250.31;;;9.12;88.35
69528;BME280;57136;51.986;4.468;2022-11-14T10:48:32;101250.47;;;8.72;89.04
69528;BME280;57136;51.986;4.468;2022-11-14T10:51:11;101251.50;;;8.80;89.68
69528;BME280;57136;51.986;4.468;2022-11-14T10:56:21;101248.19;;;8.89;89.27
69528;BME280;57136;51.986;4.468;2022-11-14T10:58:46;101247.16;;;8.81;89.99
69528;BME280;57136;51.986;4.468;2022-11-14T11:01:32;101238.31;;;8.69;90.97
69528;BME280;57136;51.986;4.468;2022-11-14T11:04:20;101239.63;;;8.95;90.12
69528;BME280;57136;51.986;4.468;2022-11-14T11:06:49;101238.09;;;9.08;89.53
69528;BME280;57136;51.986;4.468;2022-11-14T11:09:21;101234.03;;;9.24;89.98
69528;BME280;57136;51.986;4.468;2022-11-14T11:12:07;101233.25;;;9.28;89.71
69528;BME280;57136;51.986;4.468;2022-11-14T11:14:33;101222.81;;;9.26;91.25
69528;BME280;57136;51.986;4.468;2022-11-14T11:19:40;101223.84;;;9.38;89.01
69528;BME280;57136;51.986;4.468;2022-11-14T11:22:29;101219.00;;;9.63;89.74
69528;BME280;57136;51.986;4.468;2022-11-14T11:24:55;101217.25;;;9.58;90.11
69528;BME280;57136;51.986;4.468;2022-11-14T11:32:33;101218.75;;;10.07;88.01
69528;BME280;57136;51.986;4.468;2022-11-14T11:35:01;101213.44;;;10.70;86.62
69528;BME280;57136;51.986;4.468;2022-11-14T11:37:55;101207.75;;;11.18;83.45
69528;BME280;57136;51.986;4.468;2022-11-14T11:40:28;101200.19;;;11.61;79.10
69528;BME280;57136;51.986;4.468;2022-11-14T11:43:03;101208.72;;;11.32;79.97
69528;BME280;57136;51.986;4.468;2022-11-14T11:45:31;101197.03;;;10.84;83.61
69528;BME280;57136;51.986;4.468;2022-11-14T11:48:20;101206.19;;;11.42;81.90
69528;BME280;57136;51.986;4.468;2022-11-14T11:50:46;101201.97;;;11.64;80.28
69528;BME280;57136;51.986;4.468;2022-11-14T11:53:28;101206.34;;;11.68;78.70
69528;BME280;57136;51.986;4.468;2022-11-14T11:56:11;101210.53;;;11.41;78.86
69528;BME280;57136;51.986;4.468;2022-11-14T11:58:42;101197.28;;;11.16;80.67
69528;BME280;57136;51.986;4.468;2022-11-14T12:01:10;101200.56;;;10.89;82.33
69528;BME280;57136;51.986;4.468;2022-11-14T12:03:36;101205.50;;;10.62;84.99
69528;BME280;57136;51.986;4.468;2022-11-14T12:06:17;101213.31;;;10.62;86.28
69528;BME280;57136;51.986;4.468;2022-11-14T12:09:18;101203.34;;;11.11;83.85
69528;BME280;57136;51.986;4.468;2022-11-14T12:11:56;101200.03;;;11.32;84.10
69528;BME280;57136;51.986;4.468;2022-11-14T12:14:31;101205.41;;;11.58;82.89
69528;BME280;57136;51.986;4.468;2022-11-14T12:22:48;101191.09;;;11.02;84.14
69528;BME280;57136;51.986;4.468;2022-11-14T12:29:05;101176.28;;;10.98;85.42
69528;BME280;57136;51.986;4.468;2022-11-14T12:31:10;101166.16;;;11.38;83.55
69528;BME280;57136;51.986;4.468;2022-11-14T12:33:58;101160.00;;;11.31;82.98
69528;BME280;57136;51.986;4.468;2022-11-14T12:36:30;101154.16;;;11.68;81.51
69528;BME280;57136;51.986;4.468;2022-11-14T12:38:58;101153.31;;;11.80;81.37
69528;BME280;57136;51.986;4.468;2022-11-14T12:41:30;101141.97;;;11.73;83.47
69528;BME280;57136;51.986;4.468;2022-11-14T12:47:11;101147.25;;;11.84;78.39
69528;BME280;57136;51.986;4.468;2022-11-14T12:49:56;101146.59;;;13.00;77.50
69528;BME280;57136;51.986;4.468;2022-11-14T13:00:29;101131.34;;;15.37;64.17
69528;BME280;57136;51.986;4.468;2022-11-14T13:03:20;101120.88;;;16.07;62.08
69528;BME280;57136;51.986;4.468;2022-11-14T13:11:41;101104.47;;;16.51;58.57
69528;BME280;57136;51.986;4.468;2022-11-14T13:14:27;101101.84;;;15.90;59.70
69528;BME280;57136;51.986;4.468;2022-11-14T13:20:00;101100.81;;;15.28;62.85
69528;BME280;57136;51.986;4.468;2022-11-14T13:22:46;101104.97;;;14.51;64.71
69528;BME280;57136;51.986;4.468;2022-11-14T13:25:17;101109.28;;;14.60;65.09
69528;BME280;57136;51.986;4.468;2022-11-14T13:27:43;101112.50;;;13.40;69.24
69528;BME280;57136;51.986;4.468;2022-11-14T13:30:08;101111.66;;;13.33;70.87
69528;BME280;57136;51.986;4.468;2022-11-14T13:40:48;101097.63;;;11.90;78.19
69528;BME280;57136;51.986;4.468;2022-11-14T13:43:33;101099.22;;;11.48;81.33
69528;BME280;57136;51.986;4.468;2022-11-14T13:46:26;101102.69;;;11.47;81.59
69528;BME280;57136;51.986;4.468;2022-11-14T13:51:34;101099.16;;;11.35;83.69
69528;BME280;57136;51.986;4.468;2022-11-14T13:53:59;101104.41;;;11.40;82.56
69528;BME280;57136;51.986;4.468;2022-11-14T14:05:08;101089.34;;;10.94;85.71
69528;BME280;57136;51.986;4.468;2022-11-14T14:07:59;101091.09;;;11.01;85.59
69528;BME280;57136;51.986;4.468;2022-11-14T14:11:19;101089.38;;;10.97;85.00
69528;BME280;57136;51.986;4.468;2022-11-14T14:13:30;101087.44;;;10.71;86.15
69528;BME280;57136;51.986;4.468;2022-11-14T14:18:46;101064.09;;;10.87;84.49
69528;BME280;57136;51.986;4.468;2022-11-14T14:21:31;101053.56;;;10.74;86.05
69528;BME280;57136;51.986;4.468;2022-11-14T14:29:38;101040.44;;;10.57;87.48
69528;BME280;57136;51.986;4.468;2022-11-14T14:32:18;101028.19;;;10.50;87.97
69528;BME280;57136;51.986;4.468;2022-11-14T14:34:44;101036.00;;;10.48;87.81
69528;BME280;57136;51.986;4.468;2022-11-14T14:37:28;101035.09;;;10.43;87.77